sensor_id;sensor_type;location;lat;lon;timestamp;P1;durP1;ratioP1;P2;durP2;ratioP2
13311;SDS011;34033;48.672;9.376;2023-09-08T00:02:05;2.70;;;2.03;;
13311;SDS011;34033;48.672;9.376;2023-09-08T00:04:31;2.40;;;2.20;;
13311;SDS011;34033;48.672;9.376;2023-09-08T00:06:58;2.87;;;2.30;;
13311;SDS011;34033;48.672;9.376;2023-09-08T00:09:23;2.40;;;2.30;;
13311;SDS011;34033;48.672;9.376;2023-09-08T00:11:49;2.53;;;2.33;;
13311;SDS011;34033;48.672;9.376;2023-09-08T00:14:14;3.17;;;2.30;;
13311;SDS011;34033;48.672;9.376;2023-09-08T00:16:39;2.97;;;2.67;;
13311;SDS011;34033;48.672;9.376;2023-09-08T00:19:07;2.63;;;2.43;;
13311;SDS011;34033;48.672;9.376;2023-09-08T00:21:33;2.70;;;2.50;;
13311;SDS011;34033;48.672;9.376;2023-09-08T00:23:58;3.10;;;2.43;;
13311;SDS011;34033;48.672;9.376;2023-09-08T00:26:23;2.53;;;2.20;;
13311;SDS011;34033;48.672;9.376;2023-09-08T00:28:49;2.37;;;2.13;;
13311;SDS011;34033;48.672;9.376;2023-09-08T00:31:15;2.60;;;2.20;;
13311;SDS011;34033;48.672;9.376;2023-09-08T00:33:40;2.73;;;2.53;;
13311;SDS011;34033;48.672;9.376;2023-09-08T00:36:09;2.70;;;2.30;;
13311;SDS011;34033;48.672;9.376;2023-09-08T00:38:34;2.50;;;2.30;;
13311;SDS011;34033;48.672;9.376;2023-09-08T00:41:00;2.97;;;2.47;;
13311;SDS011;34033;48.672;9.376;2023-09-08T00:43:25;2.37;;;2.20;;
13311;SDS011;34033;48.672;9.376;2023-09-08T00:45:51;2.67;;;2.47;;
13311;SDS011;34033;48.672;9.376;2023-09-08T00:48:18;2.80;;;2.60;;
13311;SDS011;34033;48.672;9.376;2023-09-08T00:50:43;2.73;;;2.33;;
13311;SDS011;34033;48.672;9.376;2023-09-08T00:53:10;6.30;;;2.23;;
13311;SDS011;34033;48.672;9.376;2023-09-08T00:55:36;2.43;;;2.23;;
13311;SDS011;34033;48.672;9.376;2023-09-08T00:58:02;2.67;;;2.47;;
13311;SDS011;34033;48.672;9.376;2023-09-08T01:00:28;2.13;;;2.03;;
13311;SDS011;34033;48.672;9.376;2023-09-08T01:02:53;3.00;;;2.20;;
13311;SDS011;34033;48.672;9.376;2023-09-08T01:05:19;2.57;;;2.37;;
13311;SDS011;34033;48.672;9.376;2023-09-08T01:07:45;2.20;;;2.10;;
13311;SDS011;34033;48.672;9.376;2023-09-08T01:10:12;6.50;;;2.10;;
13311;SDS011;34033;48.672;9.376;2023-09-08T01:12:38;2.40;;;2.20;;
13311;SDS011;34033;48.672;9.376;2023-09-08T01:15:06;2.30;;;2.10;;
13311;SDS011;34033;48.672;9.376;2023-09-08T01:17:32;2.37;;;2.17;;
13311;SDS011;34033;48.672;9.376;2023-09-08T01:20:01;2.57;;;2.37;;
13311;SDS011;34033;48.672;9.376;2023-09-08T01:25:17;2.50;;;2.30;;
13311;SDS011;34033;48.672;9.376;2023-09-08T01:27:46;2.20;;;2.10;;
13311;SDS011;34033;48.672;9.376;2023-09-08T01:30:15;2.50;;;2.30;;
13311;SDS011;34033;48.672;9.376;2023-09-08T01:32:41;2.30;;;2.10;;
13311;SDS011;34033;48.672;9.376;2023-09-08T01:35:09;2.70;;;2.13;;
13311;SDS011;34033;48.672;9.376;2023-09-08T01:37:35;2.27;;;2.03;;
13311;SDS011;34033;48.672;9.376;2023-09-08T01:40:00;2.20;;;2.00;;
13311;SDS011;34033;48.672;9.376;2023-09-08T01:42:26;2.50;;;2.33;;
13311;SDS011;34033;48.672;9.376;2023-09-08T01:44:51;3.53;;;2.17;;
13311;SDS011;34033;48.672;9.376;2023-09-08T01:47:16;2.40;;;2.20;;
13311;SDS011;34033;48.672;9.376;2023-09-08T01:49:42;2.00;;;1.90;;
13311;SDS011;34033;48.672;9.376;2023-09-08T01:52:07;2.30;;;2.10;;
13311;SDS011;34033;48.672;9.376;2023-09-08T01:54:32;2.33;;;2.17;;
13311;SDS011;34033;48.672;9.376;2023-09-08T01:56:58;1.87;;;1.77;;
13311;SDS011;34033;48.672;9.376;2023-09-08T01:59:23;2.30;;;2.10;;
13311;SDS011;34033;48.672;9.376;2023-09-08T02:01:48;2.90;;;2.13;;
13311;SDS011;34033;48.672;9.376;2023-09-08T02:04:13;2.27;;;2.07;;
13311;SDS011;34033;48.672;9.376;2023-09-08T02:06:39;2.37;;;2.20;;
13311;SDS011;34033;48.672;9.376;2023-09-08T02:09:04;2.33;;;2.13;;
13311;SDS011;34033;48.672;9.376;2023-09-08T02:11:29;2.03;;;1.93;;
13311;SDS011;34033;48.672;9.376;2023-09-08T02:13:55;2.40;;;2.20;;
13311;SDS011;34033;48.672;9.376;2023-09-08T02:16:20;2.20;;;2.10;;
13311;SDS011;34033;48.672;9.376;2023-09-08T02:18:45;2.13;;;2.03;;
13311;SDS011;34033;48.672;9.376;2023-09-08T02:21:11;2.10;;;2.00;;
13311;SDS011;34033;48.672;9.376;2023-09-08T02:23:36;2.70;;;2.50;;
13311;SDS011;34033;48.672;9.376;2023-09-08T02:26:02;2.67;;;2.20;;
13311;SDS011;34033;48.672;9.376;2023-09-08T02:28:28;2.70;;;2.33;;
13311;SDS011;34033;48.672;9.376;2023-09-08T02:30:53;2.27;;;2.17;;
13311;SDS011;34033;48.672;9.376;2023-09-08T02:33:19;2.37;;;2.17;;
13311;SDS011;34033;48.672;9.376;2023-09-08T02:35:44;2.70;;;2.50;;
13311;SDS011;34033;48.672;9.376;2023-09-08T02:38:09;3.57;;;2.17;;
13311;SDS011;34033;48.672;9.376;2023-09-08T02:40:35;2.33;;;2.13;;
13311;SDS011;34033;48.672;9.376;2023-09-08T02:43:01;2.10;;;2.00;;
13311;SDS011;34033;48.672;9.376;2023-09-08T02:45:26;2.20;;;2.10;;
13311;SDS011;34033;48.672;9.376;2023-09-08T02:47:52;2.10;;;2.00;;
13311;SDS011;34033;48.672;9.376;2023-09-08T02:50:18;2.30;;;2.10;;
13311;SDS011;34033;48.672;9.376;2023-09-08T02:52:43;2.50;;;2.30;;
13311;SDS011;34033;48.672;9.376;2023-09-08T02:55:09;2.40;;;2.20;;
13311;SDS011;34033;48.672;9.376;2023-09-08T02:57:34;2.27;;;2.17;;
13311;SDS011;34033;48.672;9.376;2023-09-08T03:00:00;2.33;;;2.13;;
13311;SDS011;34033;48.672;9.376;2023-09-08T03:02:25;2.70;;;2.33;;
13311;SDS011;34033;48.672;9.376;2023-09-08T03:04:51;2.27;;;2.13;;
13311;SDS011;34033;48.672;9.376;2023-09-08T03:07:16;2.47;;;2.27;;
13311;SDS011;34033;48.672;9.376;2023-09-08T03:09:42;2.63;;;2.43;;
13311;SDS011;34033;48.672;9.376;2023-09-08T03:12:07;2.40;;;2.20;;
13311;SDS011;34033;48.672;9.376;2023-09-08T03:14:33;2.37;;;2.17;;
13311;SDS011;34033;48.672;9.376;2023-09-08T03:16:58;2.67;;;2.47;;
13311;SDS011;34033;48.672;9.376;2023-09-08T03:19:23;2.77;;;2.50;;
13311;SDS011;34033;48.672;9.376;2023-09-08T03:21:49;2.17;;;2.00;;
13311;SDS011;34033;48.672;9.376;2023-09-08T03:24:14;2.43;;;2.23;;
13311;SDS011;34033;48.672;9.376;2023-09-08T03:26:39;2.60;;;2.40;;
13311;SDS011;34033;48.672;9.376;2023-09-08T03:29:05;2.77;;;2.23;;
13311;SDS011;34033;48.672;9.376;2023-09-08T03:31:31;4.63;;;2.47;;
13311;SDS011;34033;48.672;9.376;2023-09-08T03:33:57;2.70;;;2.50;;
13311;SDS011;34033;48.672;9.376;2023-09-08T03:36:22;2.27;;;2.17;;
13311;SDS011;34033;48.672;9.376;2023-09-08T03:38:47;3.10;;;2.73;;
13311;SDS011;34033;48.672;9.376;2023-09-08T03:41:13;2.83;;;2.63;;
13311;SDS011;34033;48.672;9.376;2023-09-08T03:43:39;2.40;;;2.20;;
13311;SDS011;34033;48.672;9.376;2023-09-08T03:46:05;2.57;;;2.37;;
13311;SDS011;34033;48.672;9.376;2023-09-08T03:48:30;4.30;;;3.70;;
13311;SDS011;34033;48.672;9.376;2023-09-08T03:50:55;5.87;;;4.80;;
13311;SDS011;34033;48.672;9.376;2023-09-08T03:53:21;2.83;;;2.60;;
13311;SDS011;34033;48.672;9.376;2023-09-08T03:55:46;2.70;;;2.50;;
13311;SDS011;34033;48.672;9.376;2023-09-08T03:58:12;2.57;;;2.30;;
13311;SDS011;34033;48.672;9.376;2023-09-08T04:00:37;2.50;;;2.30;;
13311;SDS011;34033;48.672;9.376;2023-09-08T04:03:03;2.73;;;2.53;;
13311;SDS011;34033;48.672;9.376;2023-09-08T04:05:28;2.50;;;2.30;;
13311;SDS011;34033;48.672;9.376;2023-09-08T04:07:54;2.50;;;2.30;;
13311;SDS011;34033;48.672;9.376;2023-09-08T04:10:19;2.67;;;2.47;;
13311;SDS011;34033;48.672;9.376;2023-09-08T04:12:45;2.37;;;2.10;;
13311;SDS011;34033;48.672;9.376;2023-09-08T04:15:10;2.47;;;2.27;;
13311;SDS011;34033;48.672;9.376;2023-09-08T04:17:36;2.53;;;2.33;;
13311;SDS011;34033;48.672;9.376;2023-09-08T04:20:03;2.60;;;2.40;;
13311;SDS011;34033;48.672;9.376;2023-09-08T04:22:30;3.37;;;2.80;;
13311;SDS011;34033;48.672;9.376;2023-09-08T04:24:55;2.90;;;2.60;;
13311;SDS011;34033;48.672;9.376;2023-09-08T04:27:22;2.67;;;2.47;;
13311;SDS011;34033;48.672;9.376;2023-09-08T04:29:47;2.73;;;2.50;;
13311;SDS011;34033;48.672;9.376;2023-09-08T04:32:13;2.43;;;2.20;;
13311;SDS011;34033;48.672;9.376;2023-09-08T04:34:39;2.60;;;2.40;;
13311;SDS011;34033;48.672;9.376;2023-09-08T04:37:05;2.30;;;2.20;;
13311;SDS011;34033;48.672;9.376;2023-09-08T04:39:31;2.50;;;2.30;;
13311;SDS011;34033;48.672;9.376;2023-09-08T04:41:56;2.63;;;2.43;;
13311;SDS011;34033;48.672;9.376;2023-09-08T04:44:22;2.57;;;2.37;;
13311;SDS011;34033;48.672;9.376;2023-09-08T04:46:47;3.17;;;2.93;;
13311;SDS011;34033;48.672;9.376;2023-09-08T04:49:13;2.50;;;2.33;;
13311;SDS011;34033;48.672;9.376;2023-09-08T04:51:38;2.53;;;2.33;;
13311;SDS011;34033;48.672;9.376;2023-09-08T04:54:04;2.80;;;2.60;;
13311;SDS011;34033;48.672;9.376;2023-09-08T04:56:29;2.80;;;2.60;;
13311;SDS011;34033;48.672;9.376;2023-09-08T04:58:54;2.80;;;2.60;;
13311;SDS011;34033;48.672;9.376;2023-09-08T05:01:20;2.40;;;2.20;;
13311;SDS011;34033;48.672;9.376;2023-09-08T05:03:46;2.60;;;2.40;;
13311;SDS011;34033;48.672;9.376;2023-09-08T05:06:11;2.47;;;2.27;;
13311;SDS011;34033;48.672;9.376;2023-09-08T05:08:38;2.87;;;2.67;;
13311;SDS011;34033;48.672;9.376;2023-09-08T05:11:04;2.70;;;2.50;;
13311;SDS011;34033;48.672;9.376;2023-09-08T05:13:29;3.40;;;2.73;;
13311;SDS011;34033;48.672;9.376;2023-09-08T05:15:55;3.37;;;2.80;;
13311;SDS011;34033;48.672;9.376;2023-09-08T05:18:25;3.57;;;2.53;;
13311;SDS011;34033;48.672;9.376;2023-09-08T05:20:52;2.77;;;2.57;;
13311;SDS011;34033;48.672;9.376;2023-09-08T05:23:17;2.70;;;2.50;;
13311;SDS011;34033;48.672;9.376;2023-09-08T05:25:42;2.63;;;2.43;;
13311;SDS011;34033;48.672;9.376;2023-09-08T05:28:08;3.17;;;2.50;;
13311;SDS011;34033;48.672;9.376;2023-09-08T05:30:33;2.70;;;2.50;;
13311;SDS011;34033;48.672;9.376;2023-09-08T05:33:00;3.73;;;2.97;;
13311;SDS011;34033;48.672;9.376;2023-09-08T05:35:25;3.63;;;2.60;;
13311;SDS011;34033;48.672;9.376;2023-09-08T05:37:50;2.97;;;2.50;;
13311;SDS011;34033;48.672;9.376;2023-09-08T05:40:16;2.77;;;2.57;;
13311;SDS011;34033;48.672;9.376;2023-09-08T05:42:41;2.93;;;2.50;;
13311;SDS011;34033;48.672;9.376;2023-09-08T05:45:06;3.30;;;2.93;;
13311;SDS011;34033;48.672;9.376;2023-09-08T05:47:32;3.50;;;2.70;;
13311;SDS011;34033;48.672;9.376;2023-09-08T05:49:57;5.13;;;3.20;;
13311;SDS011;34033;48.672;9.376;2023-09-08T05:52:22;3.50;;;3.00;;
13311;SDS011;34033;48.672;9.376;2023-09-08T05:54:48;3.10;;;2.80;;
13311;SDS011;34033;48.672;9.376;2023-09-08T05:57:13;3.70;;;3.33;;
13311;SDS011;34033;48.672;9.376;2023-09-08T05:59:38;3.17;;;2.70;;
13311;SDS011;34033;48.672;9.376;2023-09-08T06:02:04;2.73;;;2.53;;
13311;SDS011;34033;48.672;9.376;2023-09-08T06:04:29;2.60;;;2.40;;
13311;SDS011;34033;48.672;9.376;2023-09-08T06:06:57;3.13;;;2.50;;
13311;SDS011;34033;48.672;9.376;2023-09-08T06:09:22;2.90;;;2.70;;
13311;SDS011;34033;48.672;9.376;2023-09-08T06:11:47;3.10;;;2.70;;
13311;SDS011;34033;48.672;9.376;2023-09-08T06:14:13;2.93;;;2.63;;
13311;SDS011;34033;48.672;9.376;2023-09-08T06:16:38;2.90;;;2.70;;
13311;SDS011;34033;48.672;9.376;2023-09-08T06:19:05;3.20;;;2.90;;
13311;SDS011;34033;48.672;9.376;2023-09-08T06:21:30;3.10;;;2.57;;
13311;SDS011;34033;48.672;9.376;2023-09-08T06:23:55;3.47;;;2.60;;
13311;SDS011;34033;48.672;9.376;2023-09-08T06:26:21;3.10;;;2.80;;
13311;SDS011;34033;48.672;9.376;2023-09-08T06:28:46;2.67;;;2.47;;
13311;SDS011;34033;48.672;9.376;2023-09-08T06:31:11;3.00;;;2.70;;
13311;SDS011;34033;48.672;9.376;2023-09-08T06:33:37;3.13;;;2.83;;
13311;SDS011;34033;48.672;9.376;2023-09-08T06:36:02;2.73;;;2.53;;
13311;SDS011;34033;48.672;9.376;2023-09-08T06:38:27;2.83;;;2.63;;
13311;SDS011;34033;48.672;9.376;2023-09-08T06:40:56;4.97;;;2.40;;
13311;SDS011;34033;48.672;9.376;2023-09-08T06:43:21;3.10;;;2.90;;
13311;SDS011;34033;48.672;9.376;2023-09-08T06:45:47;3.63;;;3.10;;
13311;SDS011;34033;48.672;9.376;2023-09-08T06:48:14;3.13;;;2.60;;
13311;SDS011;34033;48.672;9.376;2023-09-08T06:50:39;3.50;;;3.10;;
13311;SDS011;34033;48.672;9.376;2023-09-08T06:53:05;3.70;;;2.90;;
13311;SDS011;34033;48.672;9.376;2023-09-08T06:55:30;3.60;;;3.10;;
13311;SDS011;34033;48.672;9.376;2023-09-08T06:57:56;2.93;;;2.63;;
13311;SDS011;34033;48.672;9.376;2023-09-08T07:00:22;3.63;;;3.33;;
13311;SDS011;34033;48.672;9.376;2023-09-08T07:02:47;3.73;;;3.10;;
13311;SDS011;34033;48.672;9.376;2023-09-08T07:05:14;3.10;;;2.80;;
13311;SDS011;34033;48.672;9.376;2023-09-08T07:07:40;2.97;;;2.70;;
13311;SDS011;34033;48.672;9.376;2023-09-08T07:10:06;2.87;;;2.67;;
13311;SDS011;34033;48.672;9.376;2023-09-08T07:12:32;2.83;;;2.63;;
13311;SDS011;34033;48.672;9.376;2023-09-08T07:14:57;3.10;;;2.80;;
13311;SDS011;34033;48.672;9.376;2023-09-08T07:17:24;3.17;;;2.97;;
13311;SDS011;34033;48.672;9.376;2023-09-08T07:19:50;2.80;;;2.60;;
13311;SDS011;34033;48.672;9.376;2023-09-08T07:22:15;3.03;;;2.80;;
13311;SDS011;34033;48.672;9.376;2023-09-08T07:24:41;2.90;;;2.70;;
13311;SDS011;34033;48.672;9.376;2023-09-08T07:27:06;2.53;;;2.33;;
13311;SDS011;34033;48.672;9.376;2023-09-08T07:29:32;3.23;;;2.93;;
13311;SDS011;34033;48.672;9.376;2023-09-08T07:31:57;3.80;;;3.40;;
13311;SDS011;34033;48.672;9.376;2023-09-08T07:34:23;3.40;;;3.10;;
13311;SDS011;34033;48.672;9.376;2023-09-08T07:36:48;3.20;;;2.90;;
13311;SDS011;34033;48.672;9.376;2023-09-08T07:39:13;3.37;;;3.07;;
13311;SDS011;34033;48.672;9.376;2023-09-08T07:41:39;2.87;;;2.60;;
13311;SDS011;34033;48.672;9.376;2023-09-08T07:44:05;2.90;;;2.70;;
13311;SDS011;34033;48.672;9.376;2023-09-08T07:46:32;2.67;;;2.47;;
13311;SDS011;34033;48.672;9.376;2023-09-08T07:49:00;2.80;;;2.60;;
13311;SDS011;34033;48.672;9.376;2023-09-08T07:51:26;2.80;;;2.60;;
13311;SDS011;34033;48.672;9.376;2023-09-08T07:53:52;3.50;;;3.20;;
13311;SDS011;34033;48.672;9.376;2023-09-08T07:56:18;2.90;;;2.70;;
13311;SDS011;34033;48.672;9.376;2023-09-08T07:58:44;3.17;;;2.97;;
13311;SDS011;34033;48.672;9.376;2023-09-08T08:01:09;2.83;;;2.50;;
13311;SDS011;34033;48.672;9.376;2023-09-08T08:03:35;3.37;;;3.03;;
13311;SDS011;34033;48.672;9.376;2023-09-08T08:06:01;6.23;;;2.93;;
13311;SDS011;34033;48.672;9.376;2023-09-08T08:08:26;3.10;;;2.80;;
13311;SDS011;34033;48.672;9.376;2023-09-08T08:10:51;2.73;;;2.53;;
13311;SDS011;34033;48.672;9.376;2023-09-08T08:13:17;3.30;;;3.00;;
13311;SDS011;34033;48.672;9.376;2023-09-08T08:15:43;3.33;;;2.93;;
13311;SDS011;34033;48.672;9.376;2023-09-08T08:18:10;2.67;;;2.47;;
13311;SDS011;34033;48.672;9.376;2023-09-08T08:20:36;2.90;;;2.70;;
13311;SDS011;34033;48.672;9.376;2023-09-08T08:23:01;3.37;;;2.93;;
13311;SDS011;34033;48.672;9.376;2023-09-08T08:25:27;2.57;;;2.37;;
13311;SDS011;34033;48.672;9.376;2023-09-08T08:27:53;2.53;;;2.33;;
13311;SDS011;34033;48.672;9.376;2023-09-08T08:30:19;3.27;;;2.83;;
13311;SDS011;34033;48.672;9.376;2023-09-08T08:32:44;2.80;;;2.60;;
13311;SDS011;34033;48.672;9.376;2023-09-08T08:35:10;2.60;;;2.40;;
13311;SDS011;34033;48.672;9.376;2023-09-08T08:37:36;2.87;;;2.67;;
13311;SDS011;34033;48.672;9.376;2023-09-08T08:40:01;2.70;;;2.50;;
13311;SDS011;34033;48.672;9.376;2023-09-08T08:42:31;3.00;;;2.77;;
13311;SDS011;34033;48.672;9.376;2023-09-08T08:44:58;2.53;;;2.33;;
13311;SDS011;34033;48.672;9.376;2023-09-08T08:47:24;3.27;;;2.97;;
13311;SDS011;34033;48.672;9.376;2023-09-08T08:49:52;2.50;;;2.30;;
13311;SDS011;34033;48.672;9.376;2023-09-08T08:52:19;2.60;;;2.40;;
13311;SDS011;34033;48.672;9.376;2023-09-08T08:54:45;2.57;;;2.37;;
13311;SDS011;34033;48.672;9.376;2023-09-08T08:57:13;2.87;;;2.67;;
13311;SDS011;34033;48.672;9.376;2023-09-08T08:59:42;2.63;;;2.50;;
13311;SDS011;34033;48.672;9.376;2023-09-08T09:02:08;2.60;;;2.40;;
13311;SDS011;34033;48.672;9.376;2023-09-08T09:04:36;2.80;;;2.57;;
13311;SDS011;34033;48.672;9.376;2023-09-08T09:07:02;3.50;;;2.30;;
13311;SDS011;34033;48.672;9.376;2023-09-08T09:09:31;2.47;;;2.27;;
13311;SDS011;34033;48.672;9.376;2023-09-08T09:11:57;2.87;;;2.33;;
13311;SDS011;34033;48.672;9.376;2023-09-08T09:14:22;2.47;;;2.30;;
13311;SDS011;34033;48.672;9.376;2023-09-08T09:16:48;2.90;;;2.70;;
13311;SDS011;34033;48.672;9.376;2023-09-08T09:19:21;2.73;;;2.50;;
13311;SDS011;34033;48.672;9.376;2023-09-08T09:21:53;3.93;;;2.77;;
13311;SDS011;34033;48.672;9.376;2023-09-08T09:24:29;2.80;;;2.60;;
13311;SDS011;34033;48.672;9.376;2023-09-08T09:26:56;4.10;;;2.83;;
13311;SDS011;34033;48.672;9.376;2023-09-08T09:29:21;3.17;;;2.93;;
13311;SDS011;34033;48.672;9.376;2023-09-08T09:31:50;2.63;;;2.43;;
13311;SDS011;34033;48.672;9.376;2023-09-08T09:34:17;2.83;;;2.63;;
13311;SDS011;34033;48.672;9.376;2023-09-08T09:36:43;2.53;;;2.43;;
13311;SDS011;34033;48.672;9.376;2023-09-08T09:39:10;3.27;;;2.63;;
13311;SDS011;34033;48.672;9.376;2023-09-08T09:41:36;3.10;;;2.87;;
13311;SDS011;34033;48.672;9.376;2023-09-08T09:44:01;2.87;;;2.40;;
13311;SDS011;34033;48.672;9.376;2023-09-08T09:46:28;2.50;;;2.30;;
13311;SDS011;34033;48.672;9.376;2023-09-08T09:48:56;2.57;;;2.37;;
13311;SDS011;34033;48.672;9.376;2023-09-08T09:51:22;2.83;;;2.63;;
13311;SDS011;34033;48.672;9.376;2023-09-08T09:53:49;2.73;;;2.53;;
13311;SDS011;34033;48.672;9.376;2023-09-08T09:56:16;2.40;;;2.27;;
13311;SDS011;34033;48.672;9.376;2023-09-08T09:58:42;3.83;;;2.43;;
13311;SDS011;34033;48.672;9.376;2023-09-08T10:01:09;2.60;;;2.40;;
13311;SDS011;34033;48.672;9.376;2023-09-08T10:03:36;2.33;;;2.23;;
13311;SDS011;34033;48.672;9.376;2023-09-08T10:06:03;2.67;;;2.50;;
13311;SDS011;34033;48.672;9.376;2023-09-08T10:08:29;2.87;;;2.60;;
13311;SDS011;34033;48.672;9.376;2023-09-08T10:10:58;2.70;;;2.50;;
13311;SDS011;34033;48.672;9.376;2023-09-08T10:13:27;2.43;;;2.23;;
13311;SDS011;34033;48.672;9.376;2023-09-08T10:15:57;2.50;;;2.30;;
13311;SDS011;34033;48.672;9.376;2023-09-08T10:18:23;2.50;;;2.30;;
13311;SDS011;34033;48.672;9.376;2023-09-08T10:20:48;2.73;;;2.53;;
13311;SDS011;34033;48.672;9.376;2023-09-08T10:23:21;2.37;;;2.27;;
13311;SDS011;34033;48.672;9.376;2023-09-08T10:25:50;3.10;;;2.60;;
13311;SDS011;34033;48.672;9.376;2023-09-08T10:28:21;2.77;;;2.57;;
13311;SDS011;34033;48.672;9.376;2023-09-08T10:30:47;2.40;;;2.20;;
13311;SDS011;34033;48.672;9.376;2023-09-08T10:33:13;2.50;;;2.37;;
13311;SDS011;34033;48.672;9.376;2023-09-08T10:35:40;2.30;;;2.20;;
13311;SDS011;34033;48.672;9.376;2023-09-08T10:43:44;2.53;;;2.33;;
13311;SDS011;34033;48.672;9.376;2023-09-08T10:46:10;2.17;;;2.07;;
13311;SDS011;34033;48.672;9.376;2023-09-08T10:48:46;2.67;;;2.47;;
13311;SDS011;34033;48.672;9.376;2023-09-08T10:51:15;2.20;;;2.10;;
13311;SDS011;34033;48.672;9.376;2023-09-08T10:53:42;2.20;;;2.10;;
13311;SDS011;34033;48.672;9.376;2023-09-08T10:56:07;2.23;;;2.13;;
13311;SDS011;34033;48.672;9.376;2023-09-08T10:58:33;2.00;;;1.90;;
13311;SDS011;34033;48.672;9.376;2023-09-08T11:01:04;2.28;;;2.08;;
13311;SDS011;34033;48.672;9.376;2023-09-08T11:06:04;2.40;;;2.30;;
13311;SDS011;34033;48.672;9.376;2023-09-08T11:08:30;2.42;;;2.30;;
13311;SDS011;34033;48.672;9.376;2023-09-08T11:10:57;2.35;;;2.17;;
13311;SDS011;34033;48.672;9.376;2023-09-08T11:13:22;2.53;;;2.42;;
13311;SDS011;34033;48.672;9.376;2023-09-08T11:15:50;2.50;;;2.30;;
13311;SDS011;34033;48.672;9.376;2023-09-08T11:18:17;2.35;;;2.17;;
13311;SDS011;34033;48.672;9.376;2023-09-08T11:20:42;2.25;;;2.15;;
13311;SDS011;34033;48.672;9.376;2023-09-08T11:23:09;2.53;;;2.33;;
13311;SDS011;34033;48.672;9.376;2023-09-08T11:25:35;2.58;;;2.47;;
13311;SDS011;34033;48.672;9.376;2023-09-08T11:28:00;2.60;;;2.40;;
13311;SDS011;34033;48.672;9.376;2023-09-08T11:30:26;2.40;;;2.30;;
13311;SDS011;34033;48.672;9.376;2023-09-08T11:32:51;2.37;;;2.27;;
13311;SDS011;34033;48.672;9.376;2023-09-08T11:35:17;2.03;;;1.92;;
13311;SDS011;34033;48.672;9.376;2023-09-08T11:37:45;2.50;;;2.30;;
13311;SDS011;34033;48.672;9.376;2023-09-08T11:40:11;2.40;;;2.20;;
13311;SDS011;34033;48.672;9.376;2023-09-08T11:42:38;2.55;;;2.33;;
13311;SDS011;34033;48.672;9.376;2023-09-08T11:45:14;2.60;;;2.40;;
13311;SDS011;34033;48.672;9.376;2023-09-08T11:47:42;2.70;;;2.50;;
13311;SDS011;34033;48.672;9.376;2023-09-08T11:50:12;2.35;;;2.15;;
13311;SDS011;34033;48.672;9.376;2023-09-08T11:52:43;2.50;;;2.40;;
13311;SDS011;34033;48.672;9.376;2023-09-08T11:55:09;2.70;;;2.50;;
13311;SDS011;34033;48.672;9.376;2023-09-08T11:57:36;2.20;;;2.10;;
13311;SDS011;34033;48.672;9.376;2023-09-08T12:00:02;2.47;;;2.38;;
13311;SDS011;34033;48.672;9.376;2023-09-08T12:02:33;2.70;;;2.50;;
13311;SDS011;34033;48.672;9.376;2023-09-08T12:05:02;2.35;;;2.25;;
13311;SDS011;34033;48.672;9.376;2023-09-08T12:07:28;2.50;;;2.30;;
13311;SDS011;34033;48.672;9.376;2023-09-08T12:09:54;2.20;;;2.10;;
13311;SDS011;34033;48.672;9.376;2023-09-08T12:12:19;2.33;;;2.22;;
13311;SDS011;34033;48.672;9.376;2023-09-08T12:14:44;2.15;;;2.05;;
13311;SDS011;34033;48.672;9.376;2023-09-08T12:17:10;2.30;;;2.20;;
13311;SDS011;34033;48.672;9.376;2023-09-08T12:19:35;2.63;;;2.45;;
13311;SDS011;34033;48.672;9.376;2023-09-08T12:22:04;2.45;;;2.25;;
13311;SDS011;34033;48.672;9.376;2023-09-08T12:24:46;2.33;;;2.22;;
13311;SDS011;34033;48.672;9.376;2023-09-08T12:27:24;2.10;;;2.00;;
13311;SDS011;34033;48.672;9.376;2023-09-08T12:32:22;2.63;;;2.42;;
13311;SDS011;34033;48.672;9.376;2023-09-08T12:34:48;2.20;;;2.10;;
13311;SDS011;34033;48.672;9.376;2023-09-08T12:37:14;2.65;;;2.45;;
13311;SDS011;34033;48.672;9.376;2023-09-08T12:39:39;2.10;;;2.00;;
13311;SDS011;34033;48.672;9.376;2023-09-08T12:42:05;2.30;;;2.20;;
13311;SDS011;34033;48.672;9.376;2023-09-08T12:44:30;2.65;;;2.45;;
13311;SDS011;34033;48.672;9.376;2023-09-08T12:46:56;2.92;;;2.33;;
13311;SDS011;34033;48.672;9.376;2023-09-08T12:49:21;1.90;;;1.80;;
13311;SDS011;34033;48.672;9.376;2023-09-08T12:51:46;2.25;;;2.05;;
13311;SDS011;34033;48.672;9.376;2023-09-08T12:54:12;2.33;;;1.98;;
13311;SDS011;34033;48.672;9.376;2023-09-08T12:56:37;2.55;;;2.38;;
13311;SDS011;34033;48.672;9.376;2023-09-08T12:59:02;2.22;;;2.13;;
13311;SDS011;34033;48.672;9.376;2023-09-08T13:01:28;2.30;;;2.20;;
13311;SDS011;34033;48.672;9.376;2023-09-08T13:03:54;3.55;;;2.47;;
13311;SDS011;34033;48.672;9.376;2023-09-08T13:06:19;2.28;;;2.08;;
13311;SDS011;34033;48.672;9.376;2023-09-08T13:08:44;2.25;;;2.15;;
13311;SDS011;34033;48.672;9.376;2023-09-08T13:11:10;2.30;;;2.17;;
13311;SDS011;34033;48.672;9.376;2023-09-08T13:13:35;2.20;;;2.10;;
13311;SDS011;34033;48.672;9.376;2023-09-08T13:16:00;2.30;;;2.20;;
13311;SDS011;34033;48.672;9.376;2023-09-08T13:18:26;2.53;;;2.30;;
13311;SDS011;34033;48.672;9.376;2023-09-08T13:20:51;2.20;;;2.10;;
13311;SDS011;34033;48.672;9.376;2023-09-08T13:23:16;2.15;;;2.05;;
13311;SDS011;34033;48.672;9.376;2023-09-08T13:25:42;2.10;;;2.00;;
13311;SDS011;34033;48.672;9.376;2023-09-08T13:28:09;2.20;;;2.10;;
13311;SDS011;34033;48.672;9.376;2023-09-08T13:30:35;2.30;;;2.20;;
13311;SDS011;34033;48.672;9.376;2023-09-08T13:33:00;2.40;;;2.20;;
13311;SDS011;34033;48.672;9.376;2023-09-08T13:35:26;2.15;;;2.05;;
13311;SDS011;34033;48.672;9.376;2023-09-08T13:37:51;2.45;;;2.28;;
13311;SDS011;34033;48.672;9.376;2023-09-08T13:40:16;2.40;;;2.20;;
13311;SDS011;34033;48.672;9.376;2023-09-08T13:42:42;2.30;;;2.20;;
13311;SDS011;34033;48.672;9.376;2023-09-08T13:45:07;2.20;;;2.10;;
13311;SDS011;34033;48.672;9.376;2023-09-08T13:47:33;2.20;;;2.10;;
13311;SDS011;34033;48.672;9.376;2023-09-08T13:50:01;2.38;;;2.17;;
13311;SDS011;34033;48.672;9.376;2023-09-08T13:52:26;1.90;;;1.80;;
13311;SDS011;34033;48.672;9.376;2023-09-08T13:54:52;2.40;;;2.15;;
13311;SDS011;34033;48.672;9.376;2023-09-08T13:57:17;2.30;;;2.20;;
13311;SDS011;34033;48.672;9.376;2023-09-08T13:59:44;2.40;;;2.20;;
13311;SDS011;34033;48.672;9.376;2023-09-08T14:02:10;2.15;;;2.05;;
13311;SDS011;34033;48.672;9.376;2023-09-08T14:04:35;2.10;;;2.00;;
13311;SDS011;34033;48.672;9.376;2023-09-08T14:07:01;1.63;;;1.63;;
13311;SDS011;34033;48.672;9.376;2023-09-08T14:09:26;1.90;;;1.80;;
13311;SDS011;34033;48.672;9.376;2023-09-08T14:11:52;2.03;;;1.92;;
13311;SDS011;34033;48.672;9.376;2023-09-08T14:14:17;1.58;;;1.58;;
13311;SDS011;34033;48.672;9.376;2023-09-08T14:16:42;2.08;;;1.98;;
13311;SDS011;34033;48.672;9.376;2023-09-08T14:19:08;2.00;;;1.90;;
13311;SDS011;34033;48.672;9.376;2023-09-08T14:21:33;2.00;;;1.90;;
13311;SDS011;34033;48.672;9.376;2023-09-08T14:23:58;2.13;;;2.03;;
13311;SDS011;34033;48.672;9.376;2023-09-08T14:26:24;2.17;;;2.00;;
13311;SDS011;34033;48.672;9.376;2023-09-08T14:28:50;1.77;;;1.70;;
13311;SDS011;34033;48.672;9.376;2023-09-08T14:31:16;2.25;;;1.95;;
13311;SDS011;34033;48.672;9.376;2023-09-08T14:33:41;2.58;;;1.73;;
13311;SDS011;34033;48.672;9.376;2023-09-08T14:36:06;2.00;;;1.90;;
13311;SDS011;34033;48.672;9.376;2023-09-08T14:38:33;1.80;;;1.70;;
13311;SDS011;34033;48.672;9.376;2023-09-08T14:40:59;2.15;;;1.95;;
13311;SDS011;34033;48.672;9.376;2023-09-08T14:43:25;1.90;;;1.80;;
13311;SDS011;34033;48.672;9.376;2023-09-08T14:45:51;2.80;;;2.60;;
13311;SDS011;34033;48.672;9.376;2023-09-08T14:48:17;3.40;;;3.20;;
13311;SDS011;34033;48.672;9.376;2023-09-08T14:50:43;11.68;;;10.48;;
13311;SDS011;34033;48.672;9.376;2023-09-08T14:53:08;33.55;;;30.45;;
13311;SDS011;34033;48.672;9.376;2023-09-08T14:55:34;278.80;;;251.60;;